Impacts TAF Board INFO
FOR SITUATIONAL AWARENESS. NOT TO BE USED FOR FLIGHT PLANNING PURPOSES.
IDs:

KCVG - Cincinnati Intl, KY, US

Issued at 0831 UTC 18 Dec 2017
Updated at 1052 UTC 18 Dec 2017
Potential Impact None Slight Moderate High
Time0852Z 18/11Z 18/12Z 18/13Z 18/14Z 18/15Z 18/16Z 18/17Z 18/18Z 18/19Z 18/20Z 18/21Z 18/22Z 18/23Z>>
Type OBS PRVL
  [TEMP]  
PRVL
  [TEMP]  
PRVL PRVL PRVL PRVL PRVL PRVL PRVL PRVL PRVL
  [TEMP]  
PRVL
  [TEMP]  
PRVL
  [TEMP]  
VIS 0.13 3
  [0.5]  
3
  [0.5]  
3 3 3 3 3 3 3 3 >6 >6 >6
CIG 2 6
  [3]  
6
  [3]  
6 6 6 6 6 6 6 6 12
  [8]  
12
  [8]  
12
  [8]  
Cover OVC OVC
  [OVX]  
OVC
  [OVX]  
OVC OVC OVC OVC OVC OVC OVC OVC OVC
  [OVC]  
OVC
  [OVC]  
OVC
  [OVC]  
FltCat LIFR IFR
  [LIFR]  
IFR
  [LIFR]  
IFR IFR IFR IFR IFR IFR IFR IFR MVFR
  [IFR]  
MVFR
  [IFR]  
MVFR
  [IFR]  
WX BR -DZ BR
  [FG]  
-DZ BR
  [FG]  
-DZ BR -DZ BR -DZ BR -DZ BR -DZ BR -DZ BR -DZ BR -DZ BR --
  [--]  
--
  [--]  
--
  [--]  
WDir 200 200
[200]
200
[200]
200 200 200 200 200 200 200 200 230
[230]
230
[230]
230
[230]
WSpd 5 5
  [5]  
5
  [5]  
5 5 5 5 5 5 5 5 7
  [7]  
7
  [7]  
7
  [7]  
WGst -- --
  [--]  
--
  [--]  
-- -- -- -- -- -- -- -- --
  [--]  
--
  [--]  
--
  [--]  

Raw TAF
KCVG 180831Z 1809/1912 20005KT 3SM -DZ BR OVC006
  TEMPO 1809/1813 1/2SM FG VV003
  FM182100 23007KT P6SM OVC012
  TEMPO 1821/1901 OVC008


Raw METAR
KCVG 180852Z 20005KT 1/8SM R18C/P6000FT BR OVC002 04/04 A3008 RMK AO2 SFC VIS 1 1/2 SLP188 60000 T00440044 57004
KCVG 180811Z 18005KT 1/2SM R18C/P6000FT BR OVC003 05/05 A3008 RMK AO2 SFC VIS 3 T00500050
KCVG 180752Z 19006KT 4SM BR OVC004 05/05 A3009 RMK AO2 DZE45 SLP192 P0000 T00500050
KCVG 180741Z 19006KT 4SM -DZ BR OVC004 05/05 A3009 RMK AO2 P0000 T00500050

METAR Board
Radar Display
Forecast Discussion

FOR SITUATIONAL AWARENESS. NOT TO BE USED FOR FLIGHT PLANNING PURPOSES.